sensor_id;sensor_type;location;lat;lon;timestamp;pressure;altitude;pressure_sealevel;temperature;humidity
75013;BME280;63567;49.956;20.130;2023-02-12T00:00:40;98212.25;;;2.57;90.41
75013;BME280;63567;49.956;20.130;2023-02-12T00:03:05;98220.69;;;2.61;90.60
75013;BME280;63567;49.956;20.130;2023-02-12T00:05:31;98227.66;;;2.60;91.23
75013;BME280;63567;49.956;20.130;2023-02-12T00:07:57;98225.97;;;2.59;91.11
75013;BME280;63567;49.956;20.130;2023-02-12T00:10:22;98225.25;;;2.57;90.72
75013;BME280;63567;49.956;20.130;2023-02-12T00:12:48;98233.88;;;2.58;91.17
75013;BME280;63567;49.956;20.130;2023-02-12T00:15:13;98234.94;;;2.55;91.31
75013;BME280;63567;49.956;20.130;2023-02-12T00:17:39;98231.41;;;2.56;90.98
75013;BME280;63567;49.956;20.130;2023-02-12T00:20:04;98228.81;;;2.56;90.87
75013;BME280;63567;49.956;20.130;2023-02-12T00:22:30;98227.75;;;2.59;90.95
75013;BME280;63567;49.956;20.130;2023-02-12T00:24:55;98225.34;;;2.56;91.76
75013;BME280;63567;49.956;20.130;2023-02-12T00:27:21;98230.34;;;2.59;91.45
75013;BME280;63567;49.956;20.130;2023-02-12T00:29:46;98231.41;;;2.56;91.56
75013;BME280;63567;49.956;20.130;2023-02-12T00:32:11;98232.97;;;2.59;91.23
75013;BME280;63567;49.956;20.130;2023-02-12T00:34:39;98233.78;;;2.59;91.21
75013;BME280;63567;49.956;20.130;2023-02-12T00:37:04;98231.09;;;2.61;91.67
75013;BME280;63567;49.956;20.130;2023-02-12T00:39:29;98246.06;;;2.57;91.19
75013;BME280;63567;49.956;20.130;2023-02-12T00:41:54;98235.66;;;2.57;91.53
75013;BME280;63567;49.956;20.130;2023-02-12T00:44:20;98227.13;;;2.55;91.48
75013;BME280;63567;49.956;20.130;2023-02-12T00:46:45;98237.09;;;2.61;91.14
75013;BME280;63567;49.956;20.130;2023-02-12T00:49:10;98240.53;;;2.62;90.99
75013;BME280;63567;49.956;20.130;2023-02-12T00:51:35;98238.56;;;2.65;90.91
75013;BME280;63567;49.956;20.130;2023-02-12T00:54:01;98233.97;;;2.69;90.85
75013;BME280;63567;49.956;20.130;2023-02-12T00:56:26;98238.22;;;2.70;91.21
75013;BME280;63567;49.956;20.130;2023-02-12T00:58:51;98238.13;;;2.72;90.59
75013;BME280;63567;49.956;20.130;2023-02-12T01:01:16;98242.19;;;2.76;90.94
75013;BME280;63567;49.956;20.130;2023-02-12T01:03:42;98247.16;;;2.79;90.60
75013;BME280;63567;49.956;20.130;2023-02-12T01:06:07;98255.44;;;2.84;90.39
75013;BME280;63567;49.956;20.130;2023-02-12T01:08:33;98245.03;;;2.84;90.41
75013;BME280;63567;49.956;20.130;2023-02-12T01:11:00;98251.94;;;2.85;91.02
75013;BME280;63567;49.956;20.130;2023-02-12T01:13:26;98259.09;;;2.81;90.39
75013;BME280;63567;49.956;20.130;2023-02-12T01:16:03;98259.00;;;2.83;90.39
75013;BME280;63567;49.956;20.130;2023-02-12T01:18:30;98263.38;;;2.82;90.92
75013;BME280;63567;49.956;20.130;2023-02-12T01:20:56;98256.41;;;2.83;90.23
75013;BME280;63567;49.956;20.130;2023-02-12T01:23:23;98262.09;;;2.88;90.50
75013;BME280;63567;49.956;20.130;2023-02-12T01:25:48;98261.91;;;2.91;90.33
75013;BME280;63567;49.956;20.130;2023-02-12T01:28:13;98259.06;;;2.94;90.08
75013;BME280;63567;49.956;20.130;2023-02-12T01:30:38;98257.28;;;2.95;89.60
75013;BME280;63567;49.956;20.130;2023-02-12T01:33:04;98272.91;;;2.95;89.70
75013;BME280;63567;49.956;20.130;2023-02-12T01:35:29;98271.88;;;2.97;90.15
75013;BME280;63567;49.956;20.130;2023-02-12T01:37:54;98268.41;;;2.97;90.04
75013;BME280;63567;49.956;20.130;2023-02-12T01:40:19;98270.31;;;2.95;89.58
75013;BME280;63567;49.956;20.130;2023-02-12T01:42:45;98277.28;;;2.94;90.20
75013;BME280;63567;49.956;20.130;2023-02-12T01:47:40;98276.03;;;3.00;89.79
75013;BME280;63567;49.956;20.130;2023-02-12T01:50:06;98276.84;;;3.00;89.58
75013;BME280;63567;49.956;20.130;2023-02-12T01:52:35;98279.47;;;3.00;90.05
75013;BME280;63567;49.956;20.130;2023-02-12T01:55:05;98283.72;;;3.01;89.77
75013;BME280;63567;49.956;20.130;2023-02-12T01:57:33;98282.06;;;3.00;89.74
75013;BME280;63567;49.956;20.130;2023-02-12T02:00:00;98279.47;;;3.00;89.80
75013;BME280;63567;49.956;20.130;2023-02-12T02:02:27;98284.44;;;3.03;89.66
75013;BME280;63567;49.956;20.130;2023-02-12T02:04:58;98291.31;;;3.04;89.07
75013;BME280;63567;49.956;20.130;2023-02-12T02:07:26;98294.63;;;3.06;89.15
75013;BME280;63567;49.956;20.130;2023-02-12T02:09:51;98300.56;;;3.08;89.17
75013;BME280;63567;49.956;20.130;2023-02-12T02:12:17;98297.00;;;3.09;88.93
75013;BME280;63567;49.956;20.130;2023-02-12T02:15:11;98297.97;;;3.08;88.65
75013;BME280;63567;49.956;20.130;2023-02-12T02:17:57;98303.91;;;3.11;88.98
75013;BME280;63567;49.956;20.130;2023-02-12T02:20:47;98310.75;;;3.12;88.44
75013;BME280;63567;49.956;20.130;2023-02-12T02:26:27;98327.44;;;3.09;88.78
75013;BME280;63567;49.956;20.130;2023-02-12T02:29:19;98332.41;;;3.12;88.38
75013;BME280;63567;49.956;20.130;2023-02-12T02:34:39;98350.44;;;3.15;88.59
75013;BME280;63567;49.956;20.130;2023-02-12T02:37:14;98359.06;;;3.16;88.36
75013;BME280;63567;49.956;20.130;2023-02-12T02:39:51;98356.47;;;3.16;88.96
75013;BME280;63567;49.956;20.130;2023-02-12T02:42:36;98360.75;;;3.17;88.77
75013;BME280;63567;49.956;20.130;2023-02-12T02:45:11;98358.84;;;3.19;89.19
75013;BME280;63567;49.956;20.130;2023-02-12T02:47:41;98373.63;;;3.18;88.22
75013;BME280;63567;49.956;20.130;2023-02-12T02:50:14;98369.56;;;3.14;87.89
75013;BME280;63567;49.956;20.130;2023-02-12T02:52:51;98376.50;;;3.02;88.11
75013;BME280;63567;49.956;20.130;2023-02-12T02:55:21;98374.13;;;2.99;88.58
75013;BME280;63567;49.956;20.130;2023-02-12T02:57:53;98380.16;;;3.00;88.09
75013;BME280;63567;49.956;20.130;2023-02-12T03:00:30;98378.13;;;3.03;88.38
75013;BME280;63567;49.956;20.130;2023-02-12T03:03:15;98377.22;;;3.04;88.45
75013;BME280;63567;49.956;20.130;2023-02-12T03:05:46;98382.19;;;3.07;88.13
75013;BME280;63567;49.956;20.130;2023-02-12T03:08:26;98402.09;;;3.08;88.37
75013;BME280;63567;49.956;20.130;2023-02-12T03:11:06;98395.03;;;2.98;88.27
75013;BME280;63567;49.956;20.130;2023-02-12T03:13:42;98401.88;;;2.99;88.06
75013;BME280;63567;49.956;20.130;2023-02-12T03:16:17;98396.19;;;2.94;88.01
75013;BME280;63567;49.956;20.130;2023-02-12T03:18:51;98396.09;;;2.95;87.98
75013;BME280;63567;49.956;20.130;2023-02-12T03:21:23;98415.13;;;2.96;88.03
75013;BME280;63567;49.956;20.130;2023-02-12T03:23:57;98421.56;;;2.90;88.50
75013;BME280;63567;49.956;20.130;2023-02-12T03:26:32;98432.72;;;2.92;88.40
75013;BME280;63567;49.956;20.130;2023-02-12T03:28:58;98434.81;;;2.87;88.36
75013;BME280;63567;49.956;20.130;2023-02-12T03:31:43;98433.34;;;2.83;88.70
75013;BME280;63567;49.956;20.130;2023-02-12T03:34:23;98427.09;;;2.73;88.62
75013;BME280;63567;49.956;20.130;2023-02-12T03:37:12;98430.53;;;2.73;88.80
75013;BME280;63567;49.956;20.130;2023-02-12T03:39:49;98441.97;;;2.71;89.23
75013;BME280;63567;49.956;20.130;2023-02-12T03:42:31;98441.56;;;2.64;89.73
75013;BME280;63567;49.956;20.130;2023-02-12T03:45:07;98442.81;;;2.58;89.20
75013;BME280;63567;49.956;20.130;2023-02-12T03:47:43;98454.25;;;2.56;89.04
75013;BME280;63567;49.956;20.130;2023-02-12T03:50:19;98457.06;;;2.53;89.16
75013;BME280;63567;49.956;20.130;2023-02-12T03:52:46;98463.09;;;2.53;89.63
75013;BME280;63567;49.956;20.130;2023-02-12T03:55:11;98462.91;;;2.56;89.41
75013;BME280;63567;49.956;20.130;2023-02-12T03:57:41;98472.25;;;2.59;89.44
75013;BME280;63567;49.956;20.130;2023-02-12T04:00:16;98471.22;;;2.61;89.18
75013;BME280;63567;49.956;20.130;2023-02-12T04:02:42;98476.41;;;2.61;89.64
75013;BME280;63567;49.956;20.130;2023-02-12T04:05:15;98485.47;;;2.68;89.13
75013;BME280;63567;49.956;20.130;2023-02-12T04:07:40;98486.41;;;2.67;88.83
75013;BME280;63567;49.956;20.130;2023-02-12T04:10:06;98497.16;;;2.76;88.98
75013;BME280;63567;49.956;20.130;2023-02-12T04:12:42;98500.19;;;2.82;88.72
75013;BME280;63567;49.956;20.130;2023-02-12T04:15:45;98502.25;;;2.77;88.78
75013;BME280;63567;49.956;20.130;2023-02-12T04:18:30;98508.78;;;2.70;89.14
75013;BME280;63567;49.956;20.130;2023-02-12T04:21:20;98515.13;;;2.66;89.13
75013;BME280;63567;49.956;20.130;2023-02-12T04:24:05;98522.09;;;2.65;89.02
75013;BME280;63567;49.956;20.130;2023-02-12T04:26:50;98524.81;;;2.64;88.69
75013;BME280;63567;49.956;20.130;2023-02-12T04:29:31;98526.88;;;2.59;89.19
75013;BME280;63567;49.956;20.130;2023-02-12T04:32:14;98533.13;;;2.56;88.98
75013;BME280;63567;49.956;20.130;2023-02-12T04:34:55;98534.78;;;2.57;88.92
75013;BME280;63567;49.956;20.130;2023-02-12T04:37:25;98540.19;;;2.54;89.54
75013;BME280;63567;49.956;20.130;2023-02-12T04:39:53;98537.78;;;2.51;88.91
75013;BME280;63567;49.956;20.130;2023-02-12T04:42:18;98537.66;;;2.40;89.06
75013;BME280;63567;49.956;20.130;2023-02-12T04:44:44;98554.06;;;2.40;89.26
75013;BME280;63567;49.956;20.130;2023-02-12T04:47:14;98557.63;;;2.39;89.68
75013;BME280;63567;49.956;20.130;2023-02-12T04:49:40;98562.31;;;2.34;89.76
75013;BME280;63567;49.956;20.130;2023-02-12T04:52:06;98566.84;;;2.31;89.32
75013;BME280;63567;49.956;20.130;2023-02-12T04:54:31;98570.19;;;2.33;88.83
75013;BME280;63567;49.956;20.130;2023-02-12T04:56:58;98573.91;;;2.29;89.21
75013;BME280;63567;49.956;20.130;2023-02-12T04:59:23;98573.91;;;2.29;88.89
75013;BME280;63567;49.956;20.130;2023-02-12T05:01:49;98579.50;;;2.22;88.95
75013;BME280;63567;49.956;20.130;2023-02-12T05:04:15;98580.31;;;2.23;87.81
75013;BME280;63567;49.956;20.130;2023-02-12T05:06:42;98573.56;;;2.20;87.63
75013;BME280;63567;49.956;20.130;2023-02-12T05:09:11;98589.66;;;2.13;87.75
75013;BME280;63567;49.956;20.130;2023-02-12T05:11:37;98600.31;;;2.08;87.96
75013;BME280;63567;49.956;20.130;2023-02-12T05:14:03;98599.69;;;2.04;87.80
75013;BME280;63567;49.956;20.130;2023-02-12T05:16:28;98610.53;;;1.97;88.47
75013;BME280;63567;49.956;20.130;2023-02-12T05:18:54;98615.84;;;1.95;88.55
75013;BME280;63567;49.956;20.130;2023-02-12T05:21:19;98616.84;;;1.93;87.70
75013;BME280;63567;49.956;20.130;2023-02-12T05:23:44;98622.91;;;1.93;87.76
75013;BME280;63567;49.956;20.130;2023-02-12T05:26:13;98622.78;;;1.95;87.51
75013;BME280;63567;49.956;20.130;2023-02-12T05:28:40;98618.91;;;1.88;87.88
75013;BME280;63567;49.956;20.130;2023-02-12T05:31:08;98627.00;;;1.83;88.00
75013;BME280;63567;49.956;20.130;2023-02-12T05:33:34;98632.28;;;1.81;87.84
75013;BME280;63567;49.956;20.130;2023-02-12T05:36:07;98629.50;;;1.84;88.02
75013;BME280;63567;49.956;20.130;2023-02-12T05:38:33;98648.06;;;1.78;88.06
75013;BME280;63567;49.956;20.130;2023-02-12T05:41:07;98660.84;;;1.81;88.30
75013;BME280;63567;49.956;20.130;2023-02-12T05:43:32;98653.44;;;1.75;87.38
75013;BME280;63567;49.956;20.130;2023-02-12T05:45:59;98655.03;;;1.78;87.73
75013;BME280;63567;49.956;20.130;2023-02-12T05:48:25;98660.84;;;1.81;86.43
75013;BME280;63567;49.956;20.130;2023-02-12T05:50:51;98661.78;;;1.80;87.04
75013;BME280;63567;49.956;20.130;2023-02-12T05:53:16;98666.03;;;1.81;86.33
75013;BME280;63567;49.956;20.130;2023-02-12T05:55:41;98670.50;;;1.79;86.45
75013;BME280;63567;49.956;20.130;2023-02-12T05:58:07;98676.25;;;1.70;86.88
75013;BME280;63567;49.956;20.130;2023-02-12T06:00:32;98675.91;;;1.76;86.48
75013;BME280;63567;49.956;20.130;2023-02-12T06:02:57;98676.06;;;1.73;86.53
75013;BME280;63567;49.956;20.130;2023-02-12T06:05:22;98676.19;;;1.72;86.22
75013;BME280;63567;49.956;20.130;2023-02-12T06:07:48;98683.50;;;1.65;86.42
75013;BME280;63567;49.956;20.130;2023-02-12T06:10:13;98684.13;;;1.69;86.21
75013;BME280;63567;49.956;20.130;2023-02-12T06:12:38;98688.78;;;1.63;86.55
75013;BME280;63567;49.956;20.130;2023-02-12T06:15:04;98688.31;;;1.57;86.37
75013;BME280;63567;49.956;20.130;2023-02-12T06:17:29;98689.22;;;1.56;86.32
75013;BME280;63567;49.956;20.130;2023-02-12T06:19:54;98692.56;;;1.58;86.12
75013;BME280;63567;49.956;20.130;2023-02-12T06:22:20;98696.09;;;1.57;86.82
75013;BME280;63567;49.956;20.130;2023-02-12T06:24:45;98710.09;;;1.54;86.55
75013;BME280;63567;49.956;20.130;2023-02-12T06:27:10;98712.22;;;1.48;87.22
75013;BME280;63567;49.956;20.130;2023-02-12T06:29:35;98716.28;;;1.52;86.46
75013;BME280;63567;49.956;20.130;2023-02-12T06:32:00;98714.28;;;1.57;86.72
75013;BME280;63567;49.956;20.130;2023-02-12T06:34:26;98721.03;;;1.59;86.31
75013;BME280;63567;49.956;20.130;2023-02-12T06:36:51;98730.22;;;1.51;86.92
75013;BME280;63567;49.956;20.130;2023-02-12T06:39:16;98737.16;;;1.50;86.84
75013;BME280;63567;49.956;20.130;2023-02-12T06:41:42;98736.34;;;1.50;87.52
75013;BME280;63567;49.956;20.130;2023-02-12T06:44:09;98743.94;;;1.53;86.34
75013;BME280;63567;49.956;20.130;2023-02-12T06:46:34;98735.59;;;1.48;87.29
75013;BME280;63567;49.956;20.130;2023-02-12T06:48:59;98747.94;;;1.58;86.84
75013;BME280;63567;49.956;20.130;2023-02-12T06:51:26;98750.03;;;1.52;86.77
75013;BME280;63567;49.956;20.130;2023-02-12T06:53:53;98753.31;;;1.55;86.79
75013;BME280;63567;49.956;20.130;2023-02-12T06:56:20;98750.63;;;1.57;86.43
75013;BME280;63567;49.956;20.130;2023-02-12T06:58:47;98736.91;;;1.55;86.28
75013;BME280;63567;49.956;20.130;2023-02-12T07:01:17;98750.50;;;1.44;87.05
75013;BME280;63567;49.956;20.130;2023-02-12T07:03:48;98757.63;;;1.40;86.79
75013;BME280;63567;49.956;20.130;2023-02-12T07:06:14;98758.56;;;1.39;86.66
75013;BME280;63567;49.956;20.130;2023-02-12T07:08:39;98761.56;;;1.48;86.60
75013;BME280;63567;49.956;20.130;2023-02-12T07:11:05;98776.53;;;1.58;86.20
75013;BME280;63567;49.956;20.130;2023-02-12T07:13:32;98774.28;;;1.67;86.43
75013;BME280;63567;49.956;20.130;2023-02-12T07:16:02;98776.47;;;1.74;86.52
75013;BME280;63567;49.956;20.130;2023-02-12T07:18:28;98787.59;;;1.76;86.18
75013;BME280;63567;49.956;20.130;2023-02-12T07:20:55;98780.34;;;1.67;85.81
75013;BME280;63567;49.956;20.130;2023-02-12T07:23:20;98786.19;;;1.71;86.01
75013;BME280;63567;49.956;20.130;2023-02-12T07:25:56;98786.94;;;1.73;85.93
75013;BME280;63567;49.956;20.130;2023-02-12T07:28:21;98786.19;;;1.71;84.69
75013;BME280;63567;49.956;20.130;2023-02-12T07:30:47;98788.13;;;1.67;85.24
75013;BME280;63567;49.956;20.130;2023-02-12T07:33:12;98793.09;;;1.56;84.29
75013;BME280;63567;49.956;20.130;2023-02-12T07:35:37;98801.38;;;1.62;83.92
75013;BME280;63567;49.956;20.130;2023-02-12T07:38:02;98800.63;;;1.60;84.43
75013;BME280;63567;49.956;20.130;2023-02-12T07:40:27;98803.88;;;1.64;82.65
75013;BME280;63567;49.956;20.130;2023-02-12T07:42:54;98805.72;;;1.62;83.65
75013;BME280;63567;49.956;20.130;2023-02-12T07:45:19;98803.06;;;1.63;83.62
75013;BME280;63567;49.956;20.130;2023-02-12T07:47:45;98806.47;;;1.64;82.03
75013;BME280;63567;49.956;20.130;2023-02-12T07:50:10;98814.81;;;1.55;80.95
75013;BME280;63567;49.956;20.130;2023-02-12T07:52:35;98813.22;;;1.36;81.40
75013;BME280;63567;49.956;20.130;2023-02-12T07:55:00;98813.16;;;1.38;81.01
75013;BME280;63567;49.956;20.130;2023-02-12T07:57:26;98820.28;;;1.34;79.81
75013;BME280;63567;49.956;20.130;2023-02-12T07:59:52;98827.31;;;1.32;80.56
75013;BME280;63567;49.956;20.130;2023-02-12T08:02:17;98823.13;;;1.30;80.19
75013;BME280;63567;49.956;20.130;2023-02-12T08:04:42;98826.72;;;1.27;79.73
75013;BME280;63567;49.956;20.130;2023-02-12T08:07:07;98832.44;;;1.18;80.24
75013;BME280;63567;49.956;20.130;2023-02-12T08:09:33;98832.75;;;1.28;80.22
75013;BME280;63567;49.956;20.130;2023-02-12T08:11:58;98831.66;;;1.32;79.69
75013;BME280;63567;49.956;20.130;2023-02-12T08:14:24;98840.88;;;1.37;79.02
75013;BME280;63567;49.956;20.130;2023-02-12T08:16:51;98831.06;;;1.42;79.34
75013;BME280;63567;49.956;20.130;2023-02-12T08:19:16;98837.09;;;1.43;78.91
75013;BME280;63567;49.956;20.130;2023-02-12T08:21:42;98832.22;;;1.53;79.32
75013;BME280;63567;49.956;20.130;2023-02-12T08:24:08;98827.53;;;1.59;78.16
75013;BME280;63567;49.956;20.130;2023-02-12T08:26:36;98824.00;;;1.60;78.38
75013;BME280;63567;49.956;20.130;2023-02-12T08:29:13;98836.06;;;1.61;77.20
75013;BME280;63567;49.956;20.130;2023-02-12T08:31:42;98828.19;;;1.63;77.63
75013;BME280;63567;49.956;20.130;2023-02-12T08:34:18;98833.00;;;1.69;77.13
75013;BME280;63567;49.956;20.130;2023-02-12T08:36:45;98834.91;;;1.67;77.95
75013;BME280;63567;49.956;20.130;2023-02-12T08:39:11;98840.47;;;1.75;77.12
75013;BME280;63567;49.956;20.130;2023-02-12T08:41:37;98845.44;;;1.64;76.94
75013;BME280;63567;49.956;20.130;2023-02-12T08:44:03;98840.66;;;1.72;76.24
75013;BME280;63567;49.956;20.130;2023-02-12T08:46:32;98849.53;;;1.68;76.18
75013;BME280;63567;49.956;20.130;2023-02-12T08:49:00;98846.53;;;1.76;75.52
75013;BME280;63567;49.956;20.130;2023-02-12T08:51:27;98852.66;;;1.59;75.50
75013;BME280;63567;49.956;20.130;2023-02-12T08:53:56;98855.78;;;1.50;75.39
75013;BME280;63567;49.956;20.130;2023-02-12T08:56:22;98867.31;;;1.60;75.28
75013;BME280;63567;49.956;20.130;2023-02-12T08:58:47;98878.22;;;1.51;76.23
75013;BME280;63567;49.956;20.130;2023-02-12T09:01:15;98878.06;;;1.38;74.91
75013;BME280;63567;49.956;20.130;2023-02-12T09:03:42;98884.09;;;1.38;75.15
75013;BME280;63567;49.956;20.130;2023-02-12T09:06:08;98888.69;;;1.49;74.49
75013;BME280;63567;49.956;20.130;2023-02-12T09:08:34;98887.34;;;1.42;74.24
75013;BME280;63567;49.956;20.130;2023-02-12T09:11:13;98896.16;;;1.55;75.18
75013;BME280;63567;49.956;20.130;2023-02-12T09:13:41;98904.44;;;1.62;74.57
75013;BME280;63567;49.956;20.130;2023-02-12T09:16:07;98909.53;;;1.63;73.68
75013;BME280;63567;49.956;20.130;2023-02-12T09:18:33;98910.56;;;1.61;73.10
75013;BME280;63567;49.956;20.130;2023-02-12T09:21:08;98917.41;;;1.62;73.12
75013;BME280;63567;49.956;20.130;2023-02-12T09:23:34;98914.41;;;1.54;72.14
75013;BME280;63567;49.956;20.130;2023-02-12T09:26:03;98922.56;;;1.48;72.80
75013;BME280;63567;49.956;20.130;2023-02-12T09:28:29;98929.41;;;1.49;73.30
75013;BME280;63567;49.956;20.130;2023-02-12T09:30:55;98928.88;;;1.58;72.74
75013;BME280;63567;49.956;20.130;2023-02-12T09:33:20;98933.06;;;1.60;72.65
75013;BME280;63567;49.956;20.130;2023-02-12T09:35:46;98933.59;;;1.67;71.52
75013;BME280;63567;49.956;20.130;2023-02-12T09:38:12;98930.59;;;1.59;72.22
75013;BME280;63567;49.956;20.130;2023-02-12T09:43:41;98936.78;;;1.56;72.17
75013;BME280;63567;49.956;20.130;2023-02-12T09:47:02;98938.13;;;1.63;71.88
75013;BME280;63567;49.956;20.130;2023-02-12T09:49:40;98937.78;;;1.70;71.78
75013;BME280;63567;49.956;20.130;2023-02-12T09:52:16;98944.66;;;1.55;73.10
75013;BME280;63567;49.956;20.130;2023-02-12T09:54:42;98942.63;;;1.60;71.90
75013;BME280;63567;49.956;20.130;2023-02-12T09:57:18;98941.22;;;1.70;72.71
75013;BME280;63567;49.956;20.130;2023-02-12T09:59:50;98941.38;;;1.83;72.20
75013;BME280;63567;49.956;20.130;2023-02-12T10:02:19;98940.28;;;1.87;72.32
75013;BME280;63567;49.956;20.130;2023-02-12T10:04:46;98947.25;;;1.87;71.81
75013;BME280;63567;49.956;20.130;2023-02-12T10:15:36;98945.66;;;2.14;71.76
75013;BME280;63567;49.956;20.130;2023-02-12T10:20:57;98947.31;;;2.90;71.09
75013;BME280;63567;49.956;20.130;2023-02-12T10:23:42;98947.00;;;3.52;67.92
75013;BME280;63567;49.956;20.130;2023-02-12T10:26:29;98943.31;;;3.96;67.22
75013;BME280;63567;49.956;20.130;2023-02-12T10:28:58;98938.28;;;4.20;65.62
75013;BME280;63567;49.956;20.130;2023-02-12T10:31:31;98942.84;;;4.82;64.64
75013;BME280;63567;49.956;20.130;2023-02-12T10:33:58;98945.16;;;4.74;61.29
75013;BME280;63567;49.956;20.130;2023-02-12T10:36:43;98951.19;;;4.74;63.13
75013;BME280;63567;49.956;20.130;2023-02-12T10:41:36;98936.56;;;5.23;61.15
75013;BME280;63567;49.956;20.130;2023-02-12T10:44:03;98935.41;;;5.27;61.33
75013;BME280;63567;49.956;20.130;2023-02-12T10:46:29;98948.97;;;5.69;58.45
75013;BME280;63567;49.956;20.130;2023-02-12T10:48:57;98945.03;;;5.64;58.33
75013;BME280;63567;49.956;20.130;2023-02-12T10:51:52;98945.81;;;6.14;57.87
75013;BME280;63567;49.956;20.130;2023-02-12T10:57:21;98934.50;;;6.49;56.36
75013;BME280;63567;49.956;20.130;2023-02-12T10:59:49;98938.50;;;7.45;53.65
75013;BME280;63567;49.956;20.130;2023-02-12T11:02:32;98940.06;;;7.36;52.17
75013;BME280;63567;49.956;20.130;2023-02-12T11:04:59;98940.91;;;7.14;53.00
75013;BME280;63567;49.956;20.130;2023-02-12T11:07:27;98944.69;;;7.44;53.19
75013;BME280;63567;49.956;20.130;2023-02-12T11:09:54;98940.38;;;8.09;50.48
75013;BME280;63567;49.956;20.130;2023-02-12T11:14:52;98936.28;;;8.69;51.08
75013;BME280;63567;49.956;20.130;2023-02-12T11:17:27;98934.97;;;10.45;45.29
75013;BME280;63567;49.956;20.130;2023-02-12T11:20:04;98939.38;;;10.93;42.97
75013;BME280;63567;49.956;20.130;2023-02-12T11:22:30;98931.91;;;11.16;41.79
75013;BME280;63567;49.956;20.130;2023-02-12T11:25:00;98937.78;;;11.38;41.06
75013;BME280;63567;49.956;20.130;2023-02-12T11:27:32;98942.13;;;10.82;42.95
75013;BME280;63567;49.956;20.130;2023-02-12T11:30:18;98943.91;;;12.11;41.88
75013;BME280;63567;49.956;20.130;2023-02-12T11:32:44;98938.19;;;13.04;38.77
75013;BME280;63567;49.956;20.130;2023-02-12T11:35:16;98943.03;;;13.86;36.60
75013;BME280;63567;49.956;20.130;2023-02-12T11:37:48;98941.16;;;13.01;36.64
75013;BME280;63567;49.956;20.130;2023-02-12T11:40:17;98947.16;;;13.38;37.18
75013;BME280;63567;49.956;20.130;2023-02-12T11:42:46;98944.72;;;13.52;36.82
75013;BME280;63567;49.956;20.130;2023-02-12T11:45:19;98943.78;;;14.86;36.06
75013;BME280;63567;49.956;20.130;2023-02-12T11:47:46;98939.50;;;15.80;32.04
75013;BME280;63567;49.956;20.130;2023-02-12T11:50:23;98941.13;;;15.90;33.44
75013;BME280;63567;49.956;20.130;2023-02-12T11:52:51;98938.00;;;15.38;32.37
75013;BME280;63567;49.956;20.130;2023-02-12T11:55:26;98943.94;;;14.52;33.36
75013;BME280;63567;49.956;20.130;2023-02-12T11:57:54;98946.16;;;13.81;34.37
75013;BME280;63567;49.956;20.130;2023-02-12T12:00:35;98946.31;;;13.71;35.84
75013;BME280;63567;49.956;20.130;2023-02-12T12:03:15;98938.34;;;13.29;35.83
75013;BME280;63567;49.956;20.130;2023-02-12T12:05:51;98937.97;;;14.25;34.42
75013;BME280;63567;49.956;20.130;2023-02-12T12:08:27;98951.72;;;14.45;33.67
75013;BME280;63567;49.956;20.130;2023-02-12T12:11:03;98939.97;;;14.72;34.16
75013;BME280;63567;49.956;20.130;2023-02-12T12:13:40;98944.06;;;15.08;32.09
75013;BME280;63567;49.956;20.130;2023-02-12T12:16:13;98937.28;;;15.53;31.04
75013;BME280;63567;49.956;20.130;2023-02-12T12:19:04;98948.06;;;14.05;34.25
75013;BME280;63567;49.956;20.130;2023-02-12T12:24:58;98941.00;;;13.71;35.46
75013;BME280;63567;49.956;20.130;2023-02-12T12:27:39;98933.63;;;12.88;35.61
75013;BME280;63567;49.956;20.130;2023-02-12T12:30:47;98925.88;;;12.25;37.22
75013;BME280;63567;49.956;20.130;2023-02-12T12:38:59;98926.97;;;10.37;41.24
75013;BME280;63567;49.956;20.130;2023-02-12T12:41:40;98932.25;;;9.57;44.13
75013;BME280;63567;49.956;20.130;2023-02-12T12:44:26;98930.25;;;9.90;43.30
75013;BME280;63567;49.956;20.130;2023-02-12T12:47:09;98920.69;;;10.57;42.13
75013;BME280;63567;49.956;20.130;2023-02-12T12:50:04;98925.41;;;10.54;41.33
75013;BME280;63567;49.956;20.130;2023-02-12T12:52:46;98920.94;;;10.74;41.83
75013;BME280;63567;49.956;20.130;2023-02-12T12:58:27;98915.13;;;12.88;37.28
75013;BME280;63567;49.956;20.130;2023-02-12T13:09:22;98930.81;;;10.03;42.24
75013;BME280;63567;49.956;20.130;2023-02-12T13:12:03;98931.22;;;9.89;41.80
75013;BME280;63567;49.956;20.130;2023-02-12T13:22:39;98933.88;;;12.33;38.46
75013;BME280;63567;49.956;20.130;2023-02-12T13:25:18;98941.72;;;12.87;36.57
75013;BME280;63567;49.956;20.130;2023-02-12T13:27:46;98944.44;;;13.64;35.46
75013;BME280;63567;49.956;20.130;2023-02-12T13:32:44;98955.50;;;14.02;33.61
75013;BME280;63567;49.956;20.130;2023-02-12T13:35:20;98950.94;;;14.69;33.64
75013;BME280;63567;49.956;20.130;2023-02-12T13:37:48;98952.09;;;14.58;32.23
75013;BME280;63567;49.956;20.130;2023-02-12T13:40:24;98957.22;;;13.76;34.17
75013;BME280;63567;49.956;20.130;2023-02-12T13:45:47;98960.50;;;11.58;37.75
75013;BME280;63567;49.956;20.130;2023-02-12T13:48:32;98955.78;;;11.52;37.90
75013;BME280;63567;49.956;20.130;2023-02-12T13:54:06;98955.66;;;9.60;43.19
75013;BME280;63567;49.956;20.130;2023-02-12T13:56:50;98957.34;;;9.61;42.99
75013;BME280;63567;49.956;20.130;2023-02-12T14:01:58;98952.91;;;8.49;45.76
75013;BME280;63567;49.956;20.130;2023-02-12T14:04:29;98947.19;;;7.68;47.82
75013;BME280;63567;49.956;20.130;2023-02-12T14:07:07;98956.88;;;7.99;48.14
75013;BME280;63567;49.956;20.130;2023-02-12T14:09:42;98961.69;;;8.15;47.08
75013;BME280;63567;49.956;20.130;2023-02-12T14:12:12;98953.47;;;8.20;48.16
75013;BME280;63567;49.956;20.130;2023-02-12T14:14:45;98964.03;;;8.30;47.18
75013;BME280;63567;49.956;20.130;2023-02-12T14:28:16;98952.63;;;7.76;48.52
75013;BME280;63567;49.956;20.130;2023-02-12T14:30:44;98953.81;;;7.72;48.45
75013;BME280;63567;49.956;20.130;2023-02-12T14:33:20;98957.22;;;7.51;48.75
75013;BME280;63567;49.956;20.130;2023-02-12T14:36:13;98951.03;;;7.07;49.76
75013;BME280;63567;49.956;20.130;2023-02-12T14:41:21;98957.03;;;6.74;50.71